Time;durP1;ratioP1;P1;durP2;ratioP2;P2;SDS_P1;SDS_P2;PMS_P1;PMS_P2;Temp;Humidity;BMP_temperature;BMP_pressure;BME280_temperature;BME280_humidity;BME280_pressure;Samples;Min_cycle;Max_cycle;Signal;HPM_P1;HPM_P2
2023/01/02 00:01:11;;;;;;;10.25;6.95;;;10.60;99.90;;;;;;4916464;29;20051;-83
2023/01/02 00:03:37;;;;;;;10.07;7.05;;;10.60;99.90;;;;;;4915050;29;20470;-84
2023/01/02 00:06:04;;;;;;;9.52;6.95;;;10.60;99.90;;;;;;4907676;29;20502;-82
2023/01/02 00:08:33;;;;;;;10.43;7.68;;;10.60;99.90;;;;;;4916834;29;20462;-84
2023/01/02 00:10:58;;;;;;;12.32;7.22;;;10.60;99.90;;;;;;4926235;29;20151;-83
2023/01/02 00:13:24;;;;;;;11.30;7.45;;;10.60;99.90;;;;;;4928419;29;20099;-83
2023/01/02 00:15:50;;;;;;;9.88;7.47;;;10.60;99.90;;;;;;4912823;29;20043;-83
2023/01/02 00:18:16;;;;;;;10.57;7.05;;;10.60;99.90;;;;;;4917244;29;20035;-82
2023/01/02 00:20:41;;;;;;;10.43;7.65;;;10.60;99.90;;;;;;4914215;29;20036;-83
2023/01/02 00:23:07;;;;;;;10.93;7.45;;;10.60;99.90;;;;;;4922424;29;20056;-82
2023/01/02 00:25:33;;;;;;;14.07;7.07;;;10.60;99.90;;;;;;4926343;29;20534;-82
2023/01/02 00:28:00;;;;;;;12.85;7.93;;;10.60;99.90;;;;;;4926239;29;20501;-82
2023/01/02 00:30:26;;;;;;;16.67;8.32;;;10.60;99.90;;;;;;4931461;29;20040;-82
2023/01/02 00:32:52;;;;;;;18.95;8.30;;;10.60;99.90;;;;;;4922520;29;20032;-82
2023/01/02 00:35:17;;;;;;;13.88;8.50;;;10.60;99.90;;;;;;4924970;29;20563;-83
2023/01/02 00:37:43;;;;;;;12.68;8.43;;;10.70;99.90;;;;;;4913019;29;20036;-82
2023/01/02 00:40:12;;;;;;;11.23;8.02;;;10.70;99.90;;;;;;4914000;29;20118;-83
2023/01/02 00:42:41;;;;;;;13.85;9.82;;;10.70;99.90;;;;;;4932942;29;20054;-82
2023/01/02 00:45:08;;;;;;;15.60;9.93;;;10.70;99.90;;;;;;4914173;29;20032;-83
2023/01/02 00:47:34;;;;;;;15.90;8.93;;;10.80;99.90;;;;;;4916610;29;20074;-83
2023/01/02 00:50:00;;;;;;;12.30;9.38;;;10.70;99.90;;;;;;4903662;29;20515;-82
2023/01/02 00:52:25;;;;;;;16.60;11.05;;;10.80;99.90;;;;;;4912029;29;20075;-83
2023/01/02 00:54:51;;;;;;;15.65;11.10;;;10.80;99.90;;;;;;4925081;29;20044;-83
2023/01/02 00:57:17;;;;;;;21.73;13.00;;;10.80;99.90;;;;;;4927451;29;20048;-82
2023/01/02 00:59:42;;;;;;;17.35;11.85;;;10.80;99.90;;;;;;4911423;29;20031;-83
2023/01/02 01:02:08;;;;;;;18.02;11.73;;;10.80;99.90;;;;;;4919644;29;20071;-83
2023/01/02 01:04:36;;;;;;;20.27;12.75;;;10.80;99.90;;;;;;4911501;29;20071;-84
2023/01/02 01:07:03;;;;;;;16.70;12.68;;;10.70;99.90;;;;;;4910087;29;20043;-83
2023/01/02 01:09:28;;;;;;;20.52;13.77;;;10.80;99.90;;;;;;4928388;29;20040;-83
2023/01/02 01:11:54;;;;;;;21.63;14.00;;;10.80;99.90;;;;;;4921647;29;20055;-84
2023/01/02 01:14:20;;;;;;;21.23;14.15;;;10.80;99.90;;;;;;4908628;29;20103;-82
2023/01/02 01:16:46;;;;;;;18.92;12.98;;;10.80;99.90;;;;;;4906530;29;20063;-83
2023/01/02 01:19:11;;;;;;;18.35;13.13;;;10.80;99.90;;;;;;4912000;29;20040;-83
2023/01/02 01:21:37;;;;;;;18.33;12.73;;;10.80;99.90;;;;;;4925981;29;20079;-83
2023/01/02 01:24:03;;;;;;;19.45;11.90;;;10.80;99.90;;;;;;4926859;29;20044;-83
2023/01/02 01:26:28;;;;;;;18.58;12.30;;;10.80;99.90;;;;;;4921244;29;20044;-84
2023/01/02 01:28:55;;;;;;;19.48;13.98;;;10.80;99.90;;;;;;4923127;29;20545;-83
2023/01/02 01:31:21;;;;;;;16.60;12.20;;;10.80;99.90;;;;;;4923502;29;20048;-83
2023/01/02 01:33:47;;;;;;;16.50;11.77;;;10.90;99.90;;;;;;4912839;29;20143;-83
2023/01/02 01:36:18;;;;;;;16.35;11.07;;;10.90;99.90;;;;;;4925652;29;20122;-82
2023/01/02 01:38:45;;;;;;;18.70;12.50;;;10.90;99.90;;;;;;4917695;29;20509;-82
2023/01/02 01:41:12;;;;;;;19.80;11.88;;;10.90;99.90;;;;;;4909455;29;20036;-82
2023/01/02 01:43:44;;;;;;;19.75;11.32;;;10.90;99.90;;;;;;4910922;29;20090;-83
2023/01/02 01:46:35;;;;;;;18.40;10.63;;;10.80;99.90;;;;;;4908367;29;20067;-82
2023/01/02 01:49:15;;;;;;;16.58;10.52;;;10.90;99.90;;;;;;4913319;29;20168;-83
2023/01/02 01:51:49;;;;;;;15.80;10.57;;;10.90;99.90;;;;;;4908643;29;20047;-82
2023/01/02 01:54:19;;;;;;;12.90;10.32;;;11.00;99.90;;;;;;4909424;29;20058;-83
2023/01/02 01:56:54;;;;;;;17.58;9.82;;;10.90;99.90;;;;;;4902486;29;20068;-83
2023/01/02 01:59:19;;;;;;;17.10;11.52;;;11.00;99.90;;;;;;4911490;29;20040;-83
2023/01/02 02:01:47;;;;;;;13.73;10.38;;;11.00;99.90;;;;;;4912033;29;20518;-82
2023/01/02 02:04:13;;;;;;;14.85;10.50;;;11.00;99.90;;;;;;4911843;29;20036;-83
2023/01/02 02:06:39;;;;;;;14.90;8.95;;;11.00;99.90;;;;;;4924749;29;20039;-83
2023/01/02 02:09:34;;;;;;;13.27;9.90;;;11.00;99.90;;;;;;4924483;29;20058;-82
2023/01/02 02:12:01;;;;;;;14.10;9.50;;;11.00;99.90;;;;;;4909073;29;20082;-82
2023/01/02 02:14:26;;;;;;;16.23;10.68;;;11.10;99.90;;;;;;4923581;29;20058;-84
2023/01/02 02:17:11;;;;;;;18.90;10.88;;;11.10;99.90;;;;;;4910941;29;20675;-83
2023/01/02 02:20:02;;;;;;;16.15;10.48;;;11.00;99.90;;;;;;4910337;29;20399;-83
2023/01/02 02:23:06;;;;;;;17.90;11.45;;;11.10;99.90;;;;;;4915559;29;20047;-83
2023/01/02 02:25:55;;;;;;;19.38;10.00;;;11.10;99.90;;;;;;4909695;29;20039;-84
2023/01/02 02:28:37;;;;;;;16.00;10.50;;;11.10;99.90;;;;;;4905736;29;20072;-83
2023/01/02 02:31:30;;;;;;;14.85;9.73;;;11.10;99.90;;;;;;4909862;29;20044;-83
2023/01/02 02:34:28;;;;;;;13.43;8.70;;;11.10;99.90;;;;;;4920885;29;20039;-83
2023/01/02 02:37:31;;;;;;;16.73;10.27;;;11.10;99.90;;;;;;4897338;29;20059;-84
2023/01/02 02:40:00;;;;;;;17.38;10.05;;;11.20;99.90;;;;;;4892028;29;20047;-82
2023/01/02 02:42:52;;;;;;;16.95;10.38;;;11.10;99.90;;;;;;4925645;29;20040;-84
2023/01/02 02:45:40;;;;;;;17.70;10.38;;;11.10;99.90;;;;;;4913547;29;20048;-83
2023/01/02 02:48:45;;;;;;;14.85;9.68;;;11.10;99.90;;;;;;4906424;29;20048;-83
2023/01/02 02:51:26;;;;;;;22.92;10.27;;;11.10;99.90;;;;;;4908844;29;20116;-83
2023/01/02 02:54:06;;;;;;;23.73;10.02;;;11.10;99.90;;;;;;4927365;29;20036;-82
2023/01/02 02:56:32;;;;;;;19.70;9.73;;;11.10;99.90;;;;;;4933079;29;20040;-83
2023/01/02 02:58:58;;;;;;;16.85;9.52;;;11.10;99.90;;;;;;4914891;29;20047;-85
2023/01/02 03:01:26;;;;;;;20.70;9.85;;;11.10;99.90;;;;;;4912765;29;20042;-83
2023/01/02 03:03:52;;;;;;;23.48;10.50;;;11.10;99.90;;;;;;4926699;29;20714;-83
2023/01/02 03:06:18;;;;;;;17.85;9.50;;;11.10;99.90;;;;;;4910052;29;20127;-83
2023/01/02 03:09:10;;;;;;;15.68;8.68;;;11.10;99.90;;;;;;4928570;29;20395;-85
2023/01/02 03:12:05;;;;;;;12.27;7.95;;;11.10;99.90;;;;;;4928936;29;20086;-83
2023/01/02 03:14:48;;;;;;;16.42;8.48;;;11.20;99.90;;;;;;4914508;29;20092;-82
2023/01/02 03:17:29;;;;;;;22.13;9.48;;;11.20;99.90;;;;;;4914439;29;20826;-83
2023/01/02 03:20:00;;;;;;;20.95;9.43;;;11.20;99.90;;;;;;4926508;29;20044;-83
2023/01/02 03:22:35;;;;;;;15.07;9.25;;;11.20;99.90;;;;;;4930727;29;20035;-84
2023/01/02 03:25:03;;;;;;;10.13;8.10;;;11.20;99.90;;;;;;4928082;29;20503;-82
2023/01/02 03:27:33;;;;;;;18.38;9.50;;;11.20;99.90;;;;;;4922952;29;20500;-83
2023/01/02 03:30:07;;;;;;;16.40;8.82;;;11.20;99.90;;;;;;4926048;29;20048;-83
2023/01/02 03:32:42;;;;;;;14.80;7.70;;;11.20;99.90;;;;;;4930356;29;20091;-84
2023/01/02 03:35:14;;;;;;;15.13;10.07;;;11.20;99.90;;;;;;4927170;29;20051;-83
2023/01/02 03:37:43;;;;;;;14.32;8.90;;;11.20;99.90;;;;;;4913258;29;20048;-83
2023/01/02 03:40:14;;;;;;;14.15;8.95;;;11.30;99.90;;;;;;4913695;29;20118;-83
2023/01/02 03:42:56;;;;;;;13.45;8.23;;;11.30;99.90;;;;;;4914389;29;20128;-85
2023/01/02 03:45:30;;;;;;;17.85;9.40;;;11.30;99.90;;;;;;4917681;29;20068;-84
2023/01/02 03:48:09;;;;;;;15.52;8.57;;;11.30;99.90;;;;;;4911358;29;20051;-82
2023/01/02 03:51:04;;;;;;;16.25;9.20;;;11.30;99.90;;;;;;4927998;29;20624;-83
2023/01/02 03:53:32;;;;;;;17.75;8.70;;;11.30;99.90;;;;;;4911071;29;20047;-83
2023/01/02 03:56:15;;;;;;;13.70;8.57;;;11.20;99.90;;;;;;4906598;29;20514;-83
2023/01/02 03:58:55;;;;;;;15.43;9.40;;;11.30;99.90;;;;;;4926340;29;20047;-84
2023/01/02 04:01:40;;;;;;;18.88;9.15;;;11.30;99.90;;;;;;4917923;29;20058;-83
2023/01/02 04:04:21;;;;;;;12.10;8.50;;;11.30;99.90;;;;;;4941710;28;20044;-83
2023/01/02 04:06:54;;;;;;;11.73;8.25;;;11.30;99.90;;;;;;4926754;29;20050;-83
2023/01/02 04:09:24;;;;;;;18.35;8.95;;;11.30;99.90;;;;;;4913327;29;20039;-83
2023/01/02 04:11:58;;;;;;;13.35;8.95;;;11.30;99.90;;;;;;4944361;28;20036;-83
2023/01/02 04:14:48;;;;;;;17.95;8.73;;;11.30;99.90;;;;;;4925423;29;20066;-84
2023/01/02 04:17:17;;;;;;;12.73;8.15;;;11.30;99.90;;;;;;4926426;29;20051;-84
2023/01/02 04:20:05;;;;;;;17.85;8.85;;;11.30;99.90;;;;;;4911896;29;20050;-83
2023/01/02 04:22:38;;;;;;;17.67;8.90;;;11.30;99.90;;;;;;4915663;29;20036;-82
2023/01/02 04:25:12;;;;;;;17.67;9.10;;;11.30;99.90;;;;;;4941587;28;20051;-83
2023/01/02 04:27:50;;;;;;;17.67;8.98;;;11.30;99.90;;;;;;4913671;29;20056;-83
2023/01/02 04:30:16;;;;;;;17.85;9.07;;;11.30;99.90;;;;;;4924720;29;20043;-83
2023/01/02 04:32:44;;;;;;;15.80;9.60;;;11.40;99.90;;;;;;4916890;29;20106;-83
2023/01/02 04:35:13;;;;;;;12.88;8.73;;;11.40;99.90;;;;;;4910346;29;20044;-83
2023/01/02 04:37:41;;;;;;;18.10;9.32;;;11.30;99.90;;;;;;4926370;29;20108;-83
2023/01/02 04:40:13;;;;;;;12.65;8.55;;;11.40;99.90;;;;;;4940045;29;20044;-83
2023/01/02 04:42:39;;;;;;;13.85;9.20;;;11.40;99.90;;;;;;4927697;29;20107;-83
2023/01/02 04:45:05;;;;;;;15.63;9.02;;;11.40;99.90;;;;;;4925306;29;20035;-83
2023/01/02 04:47:31;;;;;;;20.48;9.73;;;11.40;99.90;;;;;;4905661;29;20087;-83
2023/01/02 04:49:57;;;;;;;16.05;8.90;;;11.40;99.90;;;;;;4912349;29;20036;-83
2023/01/02 04:52:22;;;;;;;17.95;8.30;;;11.50;99.90;;;;;;4924872;29;20130;-83
2023/01/02 04:54:48;;;;;;;14.90;8.05;;;11.50;99.90;;;;;;4911631;29;20035;-83
2023/01/02 04:57:13;;;;;;;14.50;7.68;;;11.50;99.90;;;;;;4912278;29;20044;-83
2023/01/02 04:59:39;;;;;;;14.02;8.25;;;11.50;99.90;;;;;;4926159;29;20055;-83
2023/01/02 05:02:05;;;;;;;14.35;7.90;;;11.60;99.90;;;;;;4911954;29;20047;-83
2023/01/02 05:04:30;;;;;;;14.88;8.95;;;11.50;99.90;;;;;;4923257;29;20032;-82
2023/01/02 05:06:56;;;;;;;13.43;7.60;;;11.50;99.90;;;;;;4927840;29;20084;-83
2023/01/02 05:09:22;;;;;;;14.70;8.90;;;11.60;99.90;;;;;;4914208;29;20116;-83
2023/01/02 05:11:47;;;;;;;14.57;8.10;;;11.50;99.90;;;;;;4928637;29;20051;-83
2023/01/02 05:14:13;;;;;;;15.15;8.32;;;11.50;99.90;;;;;;4927186;29;20044;-83
2023/01/02 05:16:38;;;;;;;12.38;7.60;;;11.60;99.90;;;;;;4923711;29;20058;-83
2023/01/02 05:19:04;;;;;;;12.80;8.20;;;11.60;99.90;;;;;;4940329;28;20068;-83
2023/01/02 05:24:14;;;;;;;13.15;8.35;;;11.60;99.90;;;;;;4927729;29;20667;-83
2023/01/02 05:26:39;;;;;;;23.58;9.45;;;11.60;99.90;;;;;;4927635;29;20131;-83
2023/01/02 05:29:05;;;;;;;15.15;8.98;;;11.60;99.90;;;;;;4912330;29;20138;-83
2023/01/02 05:31:30;;;;;;;15.70;7.88;;;11.60;99.90;;;;;;4927258;29;20070;-83
2023/01/02 05:33:57;;;;;;;14.07;8.77;;;11.60;99.90;;;;;;4911417;29;20040;-83
2023/01/02 05:36:25;;;;;;;20.00;9.25;;;11.60;99.90;;;;;;4941409;28;20105;-83
2023/01/02 05:38:51;;;;;;;16.15;7.93;;;11.60;99.90;;;;;;4906767;29;20398;-83
2023/01/02 05:41:18;;;;;;;16.13;8.70;;;11.60;99.90;;;;;;4903572;29;20048;-83
2023/01/02 05:43:44;;;;;;;14.35;8.63;;;11.60;99.90;;;;;;4910719;29;20028;-83
2023/01/02 05:46:14;;;;;;;22.85;10.50;;;11.60;99.90;;;;;;4926449;29;20067;-82
2023/01/02 05:48:40;;;;;;;15.25;9.20;;;11.60;99.90;;;;;;4922884;29;20107;-83
2023/01/02 05:51:08;;;;;;;17.88;9.88;;;11.60;99.90;;;;;;4927086;29;20070;-83
2023/01/02 05:53:34;;;;;;;10.77;9.13;;;11.60;99.90;;;;;;4914014;29;20098;-83
2023/01/02 05:56:11;;;;;;;17.00;10.32;;;11.70;99.90;;;;;;4922248;29;20035;-83
2023/01/02 05:58:39;;;;;;;20.98;9.00;;;11.70;99.90;;;;;;4923625;29;20044;-82
2023/01/02 06:01:14;;;;;;;11.23;8.23;;;11.70;99.90;;;;;;4918209;29;20039;-82
2023/01/02 06:03:51;;;;;;;19.40;9.43;;;11.70;99.90;;;;;;4915200;29;20170;-83
2023/01/02 06:06:19;;;;;;;13.65;8.93;;;11.70;99.90;;;;;;4914536;29;20047;-83
2023/01/02 06:08:44;;;;;;;19.33;10.23;;;11.70;99.90;;;;;;4913148;29;20059;-82
2023/01/02 06:11:10;;;;;;;20.83;10.68;;;11.70;99.90;;;;;;4914403;29;20039;-82
2023/01/02 06:13:37;;;;;;;15.95;9.80;;;11.70;99.90;;;;;;4927067;29;20044;-83
2023/01/02 06:16:05;;;;;;;19.15;9.77;;;11.70;99.90;;;;;;4928098;29;20055;-83
2023/01/02 06:18:32;;;;;;;20.40;11.20;;;11.70;99.90;;;;;;4927844;29;20508;-83
2023/01/02 06:20:59;;;;;;;19.38;10.52;;;11.70;99.90;;;;;;4920002;29;20048;-85
2023/01/02 06:23:25;;;;;;;15.85;9.48;;;11.70;99.90;;;;;;4909788;29;20039;-84
2023/01/02 06:25:51;;;;;;;17.33;10.55;;;11.70;99.90;;;;;;4910658;29;20036;-84
2023/01/02 06:28:16;;;;;;;19.10;10.23;;;11.70;99.90;;;;;;4910781;29;20115;-84
2023/01/02 06:30:42;;;;;;;12.07;9.32;;;11.70;99.90;;;;;;4901966;29;20107;-87
2023/01/02 06:33:09;;;;;;;11.27;7.57;;;11.70;99.90;;;;;;4909159;29;20155;-87
2023/01/02 06:35:34;;;;;;;8.32;6.90;;;11.80;99.90;;;;;;4910207;29;20047;-85
2023/01/02 06:38:00;;;;;;;10.00;7.90;;;11.80;99.90;;;;;;4922985;29;20040;-85
2023/01/02 06:40:26;;;;;;;10.40;8.00;;;11.80;99.90;;;;;;4922865;29;20171;-87
2023/01/02 06:42:51;;;;;;;10.98;7.40;;;11.80;99.90;;;;;;4910642;29;20107;-86
2023/01/02 06:45:17;;;;;;;8.88;7.18;;;11.80;99.90;;;;;;4923024;29;20092;-86
2023/01/02 06:47:43;;;;;;;11.45;7.90;;;11.80;99.90;;;;;;4924204;29;20067;-86
2023/01/02 06:50:09;;;;;;;17.17;8.68;;;11.80;99.90;;;;;;4923961;29;20047;-87
2023/01/02 06:52:35;;;;;;;13.73;8.20;;;11.80;99.90;;;;;;4903097;29;20051;-86
2023/01/02 06:55:00;;;;;;;8.75;7.47;;;11.80;99.90;;;;;;4913591;29;20044;-86
2023/01/02 06:57:29;;;;;;;9.52;5.90;;;11.80;99.90;;;;;;4923757;29;20419;-86
2023/01/02 06:59:55;;;;;;;7.78;5.93;;;11.80;99.90;;;;;;4911939;29;20035;-84
2023/01/02 07:02:21;;;;;;;9.10;5.65;;;11.80;99.90;;;;;;4915103;29;20050;-83
2023/01/02 07:04:47;;;;;;;6.18;5.00;;;11.80;99.90;;;;;;4913532;29;20131;-83
2023/01/02 07:07:18;;;;;;;5.10;3.70;;;11.80;99.90;;;;;;4922391;29;20491;-86
2023/01/02 07:09:43;;;;;;;7.78;3.22;;;11.70;99.90;;;;;;4919080;29;20514;-86
2023/01/02 07:12:09;;;;;;;2.70;2.00;;;11.60;99.90;;;;;;4923511;29;20048;-86
2023/01/02 07:14:34;;;;;;;2.20;1.35;;;11.50;99.90;;;;;;4903575;29;20055;-84
2023/01/02 07:17:00;;;;;;;2.17;0.85;;;11.50;99.90;;;;;;4923657;29;20044;-84
2023/01/02 07:19:26;;;;;;;1.05;0.40;;;11.40;99.90;;;;;;4908348;29;20047;-87
2023/01/02 07:21:51;;;;;;;0.70;0.50;;;11.30;99.90;;;;;;4911574;29;20040;-85
2023/01/02 07:24:17;;;;;;;3.80;0.77;;;11.10;99.90;;;;;;4908815;29;20058;-84
2023/01/02 07:26:42;;;;;;;3.42;0.85;;;11.00;99.90;;;;;;4925458;29;20067;-85
2023/01/02 07:29:08;;;;;;;1.73;0.90;;;10.90;99.90;;;;;;4915427;29;20055;-83
2023/01/02 07:31:34;;;;;;;2.15;1.95;;;10.90;99.90;;;;;;4922885;29;20047;-84
2023/01/02 07:34:00;;;;;;;2.47;2.20;;;10.80;99.90;;;;;;4927007;29;20055;-83
2023/01/02 07:36:26;;;;;;;3.03;2.70;;;10.80;99.90;;;;;;4926329;29;20135;-83
2023/01/02 07:38:53;;;;;;;3.83;3.30;;;10.70;99.90;;;;;;4916906;29;20067;-83
2023/01/02 07:41:21;;;;;;;3.33;3.03;;;10.60;99.90;;;;;;4915843;29;20050;-84
2023/01/02 07:43:48;;;;;;;4.50;4.10;;;10.60;99.90;;;;;;4923926;29;20095;-85
2023/01/02 07:46:16;;;;;;;4.30;3.90;;;10.60;99.90;;;;;;4923259;29;20050;-85
2023/01/02 07:48:42;;;;;;;5.50;4.45;;;10.50;99.90;;;;;;4903990;29;20040;-86
2023/01/02 07:51:09;;;;;;;7.05;4.10;;;10.50;99.90;;;;;;4923479;29;20213;-85
2023/01/02 07:53:35;;;;;;;3.78;3.38;;;10.40;99.90;;;;;;4923771;29;20408;-85
2023/01/02 07:56:01;;;;;;;3.72;2.97;;;10.40;99.90;;;;;;4921080;29;20052;-85
2023/01/02 07:58:30;;;;;;;4.95;2.70;;;10.30;99.90;;;;;;4912371;29;20094;-85
2023/01/02 08:01:11;;;;;;;3.70;2.40;;;10.20;99.90;;;;;;4895485;29;20056;-85
2023/01/02 08:03:37;;;;;;;4.43;2.28;;;10.20;99.90;;;;;;4911203;29;20043;-84
2023/01/02 08:06:14;;;;;;;3.50;2.20;;;10.00;99.90;;;;;;4911307;29;20118;-85
2023/01/02 08:08:40;;;;;;;3.10;1.80;;;10.00;99.90;;;;;;4922555;29;20044;-85
2023/01/02 08:11:17;;;;;;;5.10;1.52;;;10.00;99.90;;;;;;4908394;29;20051;-85
2023/01/02 08:13:43;;;;;;;3.25;1.75;;;9.90;99.90;;;;;;4925023;29;20035;-87
2023/01/02 08:16:15;;;;;;;2.67;1.85;;;9.90;99.90;;;;;;4924529;29;20142;-86
2023/01/02 08:18:41;;;;;;;3.33;2.13;;;9.80;99.90;;;;;;4910584;29;20043;-86
2023/01/02 08:21:07;;;;;;;3.67;1.30;;;9.80;99.90;;;;;;4909117;29;20035;-86
2023/01/02 08:23:34;;;;;;;4.40;1.85;;;9.70;99.90;;;;;;4923840;29;20138;-86
2023/01/02 08:26:01;;;;;;;5.10;1.85;;;9.70;99.90;;;;;;4923366;29;20052;-85
2023/01/02 08:28:27;;;;;;;1.67;0.80;;;9.60;99.90;;;;;;4938734;29;20058;-87
2023/01/02 08:30:53;;;;;;;3.00;0.85;;;9.60;99.90;;;;;;4922533;29;20115;-87
2023/01/02 08:33:19;;;;;;;1.63;0.60;;;9.60;99.90;;;;;;4911457;29;20135;-87
2023/01/02 08:35:44;;;;;;;3.50;0.60;;;9.50;99.90;;;;;;4923020;29;20050;-85
2023/01/02 08:38:10;;;;;;;2.50;0.80;;;9.50;99.90;;;;;;4926831;29;20044;-85
2023/01/02 08:40:35;;;;;;;5.45;1.00;;;9.40;99.90;;;;;;4909633;29;20024;-87
2023/01/02 08:43:01;;;;;;;2.70;1.10;;;9.40;99.90;;;;;;4911493;29;20043;-86
2023/01/02 08:45:27;;;;;;;4.43;1.58;;;9.40;99.90;;;;;;4924144;29;20028;-86
2023/01/02 08:47:53;;;;;;;1.85;0.85;;;9.40;99.90;;;;;;4909514;29;20139;-86
2023/01/02 08:50:19;;;;;;;1.25;0.60;;;9.80;99.90;;;;;;4909740;29;20035;-86
2023/01/02 08:52:44;;;;;;;1.23;0.90;;;9.40;99.90;;;;;;4911082;29;20061;-86
2023/01/02 08:55:10;;;;;;;2.10;0.68;;;9.30;99.90;;;;;;4924299;29;20044;-87
2023/01/02 08:57:36;;;;;;;1.95;0.60;;;9.30;99.90;;;;;;4907122;29;20096;-87
2023/01/02 09:00:03;;;;;;;1.15;0.50;;;9.30;99.90;;;;;;4909058;29;20040;-87
2023/01/02 09:02:29;;;;;;;1.38;0.68;;;9.30;99.90;;;;;;4912568;29;20629;-86
2023/01/02 09:04:57;;;;;;;1.63;0.50;;;9.40;99.90;;;;;;4905277;29;20032;-87
2023/01/02 09:07:26;;;;;;;1.17;0.70;;;9.20;99.90;;;;;;4896288;29;20046;-85
2023/01/02 09:09:51;;;;;;;3.00;0.85;;;9.20;99.90;;;;;;4908250;29;20043;-86
2023/01/02 09:12:17;;;;;;;1.80;0.68;;;9.30;99.90;;;;;;4911987;29;20039;-87
2023/01/02 09:14:42;;;;;;;1.45;0.70;;;9.10;99.90;;;;;;4921007;29;20071;-86
2023/01/02 09:17:08;;;;;;;2.83;1.33;;;9.20;99.90;;;;;;4926666;29;20047;-86
2023/01/02 09:19:34;;;;;;;1.15;0.80;;;9.20;99.90;;;;;;4907418;29;20067;-86
2023/01/02 09:22:00;;;;;;;4.80;1.67;;;9.20;99.90;;;;;;4911563;29;20044;-86
2023/01/02 09:24:27;;;;;;;4.40;1.75;;;9.20;99.90;;;;;;4908465;29;20042;-85
2023/01/02 09:26:53;;;;;;;1.88;1.17;;;8.80;99.90;;;;;;4909595;29;20044;-87
2023/01/02 09:29:18;;;;;;;3.85;1.30;;;9.20;99.90;;;;;;4921378;29;20043;-86
2023/01/02 09:31:44;;;;;;;2.13;1.58;;;9.20;99.90;;;;;;4902318;29;20035;-86
2023/01/02 09:34:10;;;;;;;2.20;1.27;;;9.00;99.90;;;;;;4909292;29;20491;-85
2023/01/02 09:36:36;;;;;;;1.83;1.23;;;9.20;99.90;;;;;;4920531;29;20054;-84
2023/01/02 09:39:03;;;;;;;3.80;1.23;;;9.20;99.90;;;;;;4908789;29;20039;-86
2023/01/02 09:41:37;;;;;;;1.38;0.90;;;9.20;99.90;;;;;;4919903;29;20153;-87
2023/01/02 09:44:12;;;;;;;1.67;0.82;;;9.20;99.90;;;;;;4909105;29;20044;-86
2023/01/02 09:46:55;;;;;;;2.97;0.80;;;9.30;99.90;;;;;;4938723;29;20052;-87
2023/01/02 09:49:24;;;;;;;2.72;0.60;;;9.20;99.90;;;;;;4922348;29;20118;-86
2023/01/02 09:51:50;;;;;;;3.63;0.98;;;9.20;99.90;;;;;;4917548;29;20044;-86
2023/01/02 09:54:29;;;;;;;2.15;1.00;;;9.30;99.90;;;;;;4911577;29;20032;-86
2023/01/02 09:57:28;;;;;;;1.50;0.68;;;9.40;99.90;;;;;;4920601;29;20054;-86
2023/01/02 10:00:08;;;;;;;3.70;0.93;;;9.30;99.90;;;;;;4907026;29;20044;-85
2023/01/02 10:02:49;;;;;;;2.58;1.00;;;9.30;99.90;;;;;;4912841;29;20171;-86
2023/01/02 10:05:27;;;;;;;1.88;1.30;;;9.30;99.90;;;;;;4916089;29;20126;-87
2023/01/02 10:08:16;;;;;;;2.63;1.00;;;9.30;99.90;;;;;;4917663;29;20577;-87
2023/01/02 10:10:45;;;;;;;2.33;0.80;;;9.30;99.90;;;;;;4928510;29;20475;-86
2023/01/02 10:13:37;;;;;;;4.40;1.00;;;9.30;99.90;;;;;;4914416;29;20047;-86
2023/01/02 10:16:11;;;;;;;2.88;1.13;;;9.40;99.90;;;;;;4917565;29;20134;-86
2023/01/02 10:18:43;;;;;;;1.80;0.85;;;9.30;99.90;;;;;;4908806;29;20082;-86
2023/01/02 10:21:22;;;;;;;5.38;1.80;;;9.40;99.90;;;;;;4925808;29;20052;-84
2023/01/02 10:24:02;;;;;;;4.10;1.05;;;9.30;99.90;;;;;;4917868;28;20903;-85
2023/01/02 10:26:36;;;;;;;2.92;1.15;;;9.40;99.90;;;;;;4916374;29;20054;-87
2023/01/02 10:29:29;;;;;;;3.63;0.63;;;9.50;99.90;;;;;;4932817;29;20051;-87
2023/01/02 10:32:00;;;;;;;1.35;0.77;;;9.30;99.90;;;;;;4912701;29;20075;-84
2023/01/02 10:34:39;;;;;;;1.73;0.52;;;9.40;99.90;;;;;;4929334;29;20035;-87
2023/01/02 10:37:17;;;;;;;1.40;0.55;;;8.70;99.90;;;;;;4927099;29;20079;-86
2023/01/02 10:39:47;;;;;;;2.65;0.63;;;9.30;99.90;;;;;;4929049;29;20039;-86
2023/01/02 10:42:14;;;;;;;3.28;0.77;;;9.30;99.90;;;;;;4913887;29;20045;-84
2023/01/02 10:44:43;;;;;;;2.78;0.93;;;9.30;99.90;;;;;;4930212;29;20036;-86
2023/01/02 10:47:15;;;;;;;3.53;0.85;;;9.30;99.90;;;;;;4914478;29;20089;-86
2023/01/02 10:49:42;;;;;;;3.50;0.75;;;9.30;99.90;;;;;;4916378;29;20047;-86
2023/01/02 10:52:36;;;;;;;2.95;1.20;;;9.30;99.90;;;;;;4927998;29;20127;-86
2023/01/02 10:55:02;;;;;;;3.17;1.30;;;9.30;99.90;;;;;;4918200;29;20055;-86
2023/01/02 10:57:36;;;;;;;4.65;1.20;;;9.30;99.90;;;;;;4905974;29;20044;-87
2023/01/02 11:00:04;;;;;;;8.65;1.85;;;9.30;99.90;;;;;;4943791;28;20438;-86
2023/01/02 11:02:40;;;;;;;4.45;1.15;;;9.30;99.90;;;;;;4913847;29;20039;-87
2023/01/02 11:05:17;;;;;;;2.78;0.93;;;9.30;99.90;;;;;;4913888;29;20514;-86
2023/01/02 11:07:47;;;;;;;3.40;1.13;;;9.40;99.90;;;;;;4916822;29;20102;-85
2023/01/02 11:10:35;;;;;;;5.57;1.55;;;9.40;99.90;;;;;;4927345;29;20403;-86
2023/01/02 11:13:22;;;;;;;2.63;1.20;;;9.70;99.90;;;;;;4927760;29;20042;-87
2023/01/02 11:15:57;;;;;;;4.72;1.65;;;9.50;99.90;;;;;;4908673;29;20312;-85
2023/01/02 11:18:33;;;;;;;3.95;1.20;;;9.60;99.90;;;;;;4938966;29;20039;-86
2023/01/02 11:21:04;;;;;;;6.28;1.50;;;9.60;99.90;;;;;;4923088;29;20044;-86
2023/01/02 11:23:41;;;;;;;5.15;1.20;;;9.60;99.90;;;;;;4916472;29;20614;-86
2023/01/02 11:26:26;;;;;;;5.32;1.92;;;9.70;99.90;;;;;;4906065;29;20040;-86
2023/01/02 11:28:54;;;;;;;5.72;1.20;;;9.70;99.90;;;;;;4912028;29;20925;-87
2023/01/02 11:31:21;;;;;;;3.47;1.10;;;9.70;99.90;;;;;;4910987;29;20119;-87
2023/01/02 11:33:49;;;;;;;5.43;1.30;;;9.80;99.90;;;;;;4909716;29;20099;-86
2023/01/02 11:36:19;;;;;;;6.15;0.70;;;9.90;99.90;;;;;;4915839;29;20122;-87
2023/01/02 11:38:55;;;;;;;6.13;1.25;;;9.80;99.90;;;;;;4912297;29;20155;-86
2023/01/02 11:44:18;;;;;;;3.92;1.05;;;9.70;99.90;;;;;;4926787;29;20130;-86
2023/01/02 11:46:45;;;;;;;5.68;1.55;;;9.70;99.90;;;;;;4925065;29;20416;-86
2023/01/02 11:49:21;;;;;;;4.72;1.63;;;9.70;99.90;;;;;;4926984;29;20483;-86
2023/01/02 11:52:03;;;;;;;7.85;1.20;;;9.70;99.90;;;;;;4927266;29;20143;-87
2023/01/02 11:54:42;;;;;;;4.18;1.02;;;9.70;99.90;;;;;;4916460;29;20047;-86
2023/01/02 11:57:28;;;;;;;6.28;1.00;;;9.60;99.90;;;;;;4906955;29;20498;-87
2023/01/02 11:59:58;;;;;;;5.82;1.38;;;9.60;99.90;;;;;;4922964;29;20075;-87
2023/01/02 12:02:47;;;;;;;5.25;0.82;;;9.60;99.90;;;;;;4895283;29;20044;-87
2023/01/02 12:05:21;;;;;;;8.20;1.05;;;9.60;99.90;;;;;;4925897;29;20039;-86
2023/01/02 12:08:04;;;;;;;4.32;0.60;;;9.60;99.90;;;;;;4922110;29;20083;-87
2023/01/02 12:11:18;;;;;;;3.38;0.88;;;9.70;99.90;;;;;;4910379;29;20059;-86
2023/01/02 12:14:12;;;;;;;7.32;1.40;;;9.60;99.90;;;;;;4894285;29;20060;-88
2023/01/02 12:17:10;;;;;;;5.65;1.25;;;9.70;99.90;;;;;;4907180;29;20087;-87
2023/01/02 12:20:13;;;;;;;8.00;2.08;;;9.60;99.90;;;;;;4903214;29;20039;-83
2023/01/02 12:23:12;;;;;;;8.48;1.30;;;9.60;99.90;;;;;;4909926;29;20399;-86
2023/01/02 12:25:55;;;;;;;6.30;1.38;;;9.60;99.90;;;;;;4908350;29;20492;-85
2023/01/02 12:28:31;;;;;;;9.52;1.25;;;9.60;99.90;;;;;;4925716;29;20050;-86
2023/01/02 12:31:12;;;;;;;;;;;9.70;99.90;;;;;;4909497;29;20051;-86
2023/01/02 12:33:56;;;;;;;8.05;2.10;;;9.60;99.90;;;;;;4910505;29;20294;-87
2023/01/02 12:36:28;;;;;;;7.60;1.38;;;9.60;99.90;;;;;;4924424;29;20193;-86
2023/01/02 12:39:04;;;;;;;8.98;1.73;;;9.60;99.90;;;;;;4910800;29;20040;-86
2023/01/02 12:41:42;;;;;;;6.50;1.30;;;9.60;99.90;;;;;;4921020;29;20039;-84
2023/01/02 12:44:40;;;;;;;5.53;1.05;;;10.20;99.90;;;;;;4921244;29;20075;-86
2023/01/02 12:47:27;;;;;;;6.78;1.02;;;9.70;99.90;;;;;;4923229;29;20047;-86
2023/01/02 12:50:21;;;;;;;12.70;2.30;;;9.70;99.90;;;;;;4923559;29;20043;-86
2023/01/02 12:52:53;;;;;;;11.57;2.00;;;9.70;99.90;;;;;;4923374;29;20048;-86
2023/01/02 12:55:49;;;;;;;8.15;1.48;;;9.60;99.90;;;;;;4929591;29;20048;-86
2023/01/02 12:58:15;;;;;;;;;;;9.70;99.90;;;;;;4909484;29;20415;-86
2023/01/02 13:01:05;;;;;;;10.10;1.80;;;9.70;99.90;;;;;;4904692;29;19927;-85
2023/01/02 13:03:31;;;;;;;8.55;1.08;;;9.70;99.90;;;;;;4904977;29;20044;-87
2023/01/02 13:06:24;;;;;;;9.70;1.33;;;9.70;99.90;;;;;;4903889;29;20071;-85
2023/01/02 13:09:01;;;;;;;6.57;1.73;;;9.60;99.90;;;;;;4922977;29;20063;-85
2023/01/02 13:11:53;;;;;;;9.52;1.70;;;9.70;99.90;;;;;;4927065;29;20468;-87
2023/01/02 13:14:25;;;;;;;9.68;1.35;;;9.70;99.90;;;;;;4921785;29;20047;-87